sensor_id;sensor_type;location;lat;lon;timestamp;P1;durP1;ratioP1;P2;durP2;ratioP2
2644;SDS011;15377;48.540;9.268;2023-02-17T00:00:05;12.50;;;4.50;;
2644;SDS011;15377;48.540;9.268;2023-02-17T00:02:32;10.50;;;4.60;;
2644;SDS011;15377;48.540;9.268;2023-02-17T00:04:58;9.17;;;4.37;;
2644;SDS011;15377;48.540;9.268;2023-02-17T00:07:23;7.90;;;4.43;;
2644;SDS011;15377;48.540;9.268;2023-02-17T00:09:48;8.60;;;3.37;;
2644;SDS011;15377;48.540;9.268;2023-02-17T00:12:14;12.50;;;4.63;;
2644;SDS011;15377;48.540;9.268;2023-02-17T00:14:39;7.80;;;4.60;;
2644;SDS011;15377;48.540;9.268;2023-02-17T00:17:05;9.00;;;4.00;;
2644;SDS011;15377;48.540;9.268;2023-02-17T00:19:31;8.83;;;4.90;;
2644;SDS011;15377;48.540;9.268;2023-02-17T00:21:58;9.90;;;4.37;;
2644;SDS011;15377;48.540;9.268;2023-02-17T00:24:25;8.70;;;4.40;;
2644;SDS011;15377;48.540;9.268;2023-02-17T00:26:52;8.23;;;4.00;;
2644;SDS011;15377;48.540;9.268;2023-02-17T00:29:17;7.47;;;4.03;;
2644;SDS011;15377;48.540;9.268;2023-02-17T00:31:43;11.03;;;4.20;;
2644;SDS011;15377;48.540;9.268;2023-02-17T00:34:09;9.57;;;4.17;;
2644;SDS011;15377;48.540;9.268;2023-02-17T00:36:34;8.57;;;4.40;;
2644;SDS011;15377;48.540;9.268;2023-02-17T00:39:00;10.07;;;4.50;;
2644;SDS011;15377;48.540;9.268;2023-02-17T00:41:27;9.87;;;4.27;;
2644;SDS011;15377;48.540;9.268;2023-02-17T00:43:52;8.10;;;3.70;;
2644;SDS011;15377;48.540;9.268;2023-02-17T00:46:18;8.43;;;3.93;;
2644;SDS011;15377;48.540;9.268;2023-02-17T00:48:44;8.70;;;4.50;;
2644;SDS011;15377;48.540;9.268;2023-02-17T00:51:10;6.40;;;3.40;;
2644;SDS011;15377;48.540;9.268;2023-02-17T00:53:36;9.20;;;3.70;;
2644;SDS011;15377;48.540;9.268;2023-02-17T00:56:01;8.50;;;3.70;;
2644;SDS011;15377;48.540;9.268;2023-02-17T00:58:28;12.33;;;4.17;;
2644;SDS011;15377;48.540;9.268;2023-02-17T01:00:56;9.80;;;4.03;;
2644;SDS011;15377;48.540;9.268;2023-02-17T01:03:22;8.40;;;3.60;;
2644;SDS011;15377;48.540;9.268;2023-02-17T01:05:48;11.63;;;4.67;;
2644;SDS011;15377;48.540;9.268;2023-02-17T01:08:14;7.50;;;3.33;;
2644;SDS011;15377;48.540;9.268;2023-02-17T01:10:42;12.00;;;4.33;;
2644;SDS011;15377;48.540;9.268;2023-02-17T01:13:09;10.03;;;3.73;;
2644;SDS011;15377;48.540;9.268;2023-02-17T01:15:46;7.97;;;3.43;;
2644;SDS011;15377;48.540;9.268;2023-02-17T01:18:13;10.50;;;3.90;;
2644;SDS011;15377;48.540;9.268;2023-02-17T01:20:40;9.07;;;3.97;;
2644;SDS011;15377;48.540;9.268;2023-02-17T01:23:06;10.33;;;3.60;;
2644;SDS011;15377;48.540;9.268;2023-02-17T01:25:40;13.80;;;4.63;;
2644;SDS011;15377;48.540;9.268;2023-02-17T01:28:07;10.23;;;3.87;;
2644;SDS011;15377;48.540;9.268;2023-02-17T01:30:38;9.20;;;4.83;;
2644;SDS011;15377;48.540;9.268;2023-02-17T01:33:03;9.57;;;3.93;;
2644;SDS011;15377;48.540;9.268;2023-02-17T01:35:28;7.07;;;3.00;;
2644;SDS011;15377;48.540;9.268;2023-02-17T01:37:54;7.07;;;3.60;;
2644;SDS011;15377;48.540;9.268;2023-02-17T01:40:19;7.97;;;3.70;;
2644;SDS011;15377;48.540;9.268;2023-02-17T01:42:44;7.60;;;4.00;;
2644;SDS011;15377;48.540;9.268;2023-02-17T01:47:41;9.90;;;3.83;;
2644;SDS011;15377;48.540;9.268;2023-02-17T01:50:11;8.40;;;3.33;;
2644;SDS011;15377;48.540;9.268;2023-02-17T01:52:37;9.40;;;4.13;;
2644;SDS011;15377;48.540;9.268;2023-02-17T01:55:06;9.07;;;4.17;;
2644;SDS011;15377;48.540;9.268;2023-02-17T01:57:37;8.07;;;3.87;;
2644;SDS011;15377;48.540;9.268;2023-02-17T02:00:04;8.13;;;3.90;;
2644;SDS011;15377;48.540;9.268;2023-02-17T02:02:32;8.30;;;4.20;;
2644;SDS011;15377;48.540;9.268;2023-02-17T02:04:57;8.57;;;4.20;;
2644;SDS011;15377;48.540;9.268;2023-02-17T02:07:25;7.80;;;3.63;;
2644;SDS011;15377;48.540;9.268;2023-02-17T02:09:54;10.07;;;3.77;;
2644;SDS011;15377;48.540;9.268;2023-02-17T02:12:25;8.63;;;4.17;;
2644;SDS011;15377;48.540;9.268;2023-02-17T02:14:57;9.83;;;3.53;;
2644;SDS011;15377;48.540;9.268;2023-02-17T02:17:31;9.90;;;4.10;;
2644;SDS011;15377;48.540;9.268;2023-02-17T02:25:50;10.70;;;4.20;;
2644;SDS011;15377;48.540;9.268;2023-02-17T02:36:18;9.70;;;4.07;;
2644;SDS011;15377;48.540;9.268;2023-02-17T02:38:51;9.30;;;4.13;;
2644;SDS011;15377;48.540;9.268;2023-02-17T02:41:23;8.43;;;4.10;;
2644;SDS011;15377;48.540;9.268;2023-02-17T02:43:53;8.70;;;3.70;;
2644;SDS011;15377;48.540;9.268;2023-02-17T02:46:19;10.00;;;4.10;;
2644;SDS011;15377;48.540;9.268;2023-02-17T02:48:44;9.43;;;3.53;;
2644;SDS011;15377;48.540;9.268;2023-02-17T03:08:07;8.53;;;4.07;;
2644;SDS011;15377;48.540;9.268;2023-02-17T03:10:43;8.20;;;3.60;;
2644;SDS011;15377;48.540;9.268;2023-02-17T03:13:10;8.57;;;3.80;;
2644;SDS011;15377;48.540;9.268;2023-02-17T03:15:35;8.70;;;4.67;;
2644;SDS011;15377;48.540;9.268;2023-02-17T03:18:01;7.27;;;4.17;;
2644;SDS011;15377;48.540;9.268;2023-02-17T03:20:29;10.63;;;4.53;;
2644;SDS011;15377;48.540;9.268;2023-02-17T03:22:58;11.93;;;4.30;;
2644;SDS011;15377;48.540;9.268;2023-02-17T03:25:24;7.77;;;3.20;;
2644;SDS011;15377;48.540;9.268;2023-02-17T03:27:49;8.10;;;4.10;;
2644;SDS011;15377;48.540;9.268;2023-02-17T03:30:15;8.50;;;3.90;;
2644;SDS011;15377;48.540;9.268;2023-02-17T03:32:40;8.63;;;4.07;;
2644;SDS011;15377;48.540;9.268;2023-02-17T03:35:06;8.60;;;4.03;;
2644;SDS011;15377;48.540;9.268;2023-02-17T03:37:32;9.67;;;4.07;;
2644;SDS011;15377;48.540;9.268;2023-02-17T03:39:58;8.73;;;3.80;;
2644;SDS011;15377;48.540;9.268;2023-02-17T03:42:24;7.60;;;3.93;;
2644;SDS011;15377;48.540;9.268;2023-02-17T03:44:49;6.73;;;3.53;;
2644;SDS011;15377;48.540;9.268;2023-02-17T03:47:14;8.30;;;3.57;;
2644;SDS011;15377;48.540;9.268;2023-02-17T03:49:40;9.00;;;3.60;;
2644;SDS011;15377;48.540;9.268;2023-02-17T03:52:05;8.63;;;3.47;;
2644;SDS011;15377;48.540;9.268;2023-02-17T03:54:30;9.47;;;3.83;;
2644;SDS011;15377;48.540;9.268;2023-02-17T03:56:56;14.33;;;4.70;;
2644;SDS011;15377;48.540;9.268;2023-02-17T03:59:23;7.90;;;3.70;;
2644;SDS011;15377;48.540;9.268;2023-02-17T04:01:48;8.50;;;4.20;;
2644;SDS011;15377;48.540;9.268;2023-02-17T04:04:13;8.30;;;3.80;;
2644;SDS011;15377;48.540;9.268;2023-02-17T04:06:39;10.30;;;3.93;;
2644;SDS011;15377;48.540;9.268;2023-02-17T04:09:04;9.40;;;4.13;;
2644;SDS011;15377;48.540;9.268;2023-02-17T04:11:29;9.53;;;3.47;;
2644;SDS011;15377;48.540;9.268;2023-02-17T04:13:55;8.03;;;3.80;;
2644;SDS011;15377;48.540;9.268;2023-02-17T04:16:20;7.30;;;3.70;;
2644;SDS011;15377;48.540;9.268;2023-02-17T04:18:45;7.53;;;3.57;;
2644;SDS011;15377;48.540;9.268;2023-02-17T04:21:11;8.40;;;3.67;;
2644;SDS011;15377;48.540;9.268;2023-02-17T04:23:36;8.87;;;3.47;;
2644;SDS011;15377;48.540;9.268;2023-02-17T04:26:03;7.70;;;3.87;;
2644;SDS011;15377;48.540;9.268;2023-02-17T04:28:29;8.70;;;3.30;;
2644;SDS011;15377;48.540;9.268;2023-02-17T04:30:55;7.40;;;3.23;;
2644;SDS011;15377;48.540;9.268;2023-02-17T04:33:22;7.27;;;3.50;;
2644;SDS011;15377;48.540;9.268;2023-02-17T04:35:47;7.87;;;3.47;;
2644;SDS011;15377;48.540;9.268;2023-02-17T04:38:12;9.93;;;3.73;;
2644;SDS011;15377;48.540;9.268;2023-02-17T04:40:39;9.77;;;3.30;;
2644;SDS011;15377;48.540;9.268;2023-02-17T04:43:04;7.40;;;3.33;;
2644;SDS011;15377;48.540;9.268;2023-02-17T04:45:30;8.63;;;3.30;;
2644;SDS011;15377;48.540;9.268;2023-02-17T04:47:55;7.20;;;3.60;;
2644;SDS011;15377;48.540;9.268;2023-02-17T04:50:20;8.13;;;3.60;;
2644;SDS011;15377;48.540;9.268;2023-02-17T04:52:46;8.83;;;4.13;;
2644;SDS011;15377;48.540;9.268;2023-02-17T04:55:12;9.03;;;4.43;;
2644;SDS011;15377;48.540;9.268;2023-02-17T04:57:37;15.50;;;4.10;;
2644;SDS011;15377;48.540;9.268;2023-02-17T05:00:06;8.77;;;3.77;;
2644;SDS011;15377;48.540;9.268;2023-02-17T05:02:31;9.37;;;4.13;;
2644;SDS011;15377;48.540;9.268;2023-02-17T05:04:57;9.70;;;3.80;;
2644;SDS011;15377;48.540;9.268;2023-02-17T05:07:22;8.93;;;3.83;;
2644;SDS011;15377;48.540;9.268;2023-02-17T05:09:47;8.83;;;3.90;;
2644;SDS011;15377;48.540;9.268;2023-02-17T05:12:13;8.50;;;4.30;;
2644;SDS011;15377;48.540;9.268;2023-02-17T05:14:38;8.10;;;3.93;;
2644;SDS011;15377;48.540;9.268;2023-02-17T05:17:04;8.90;;;4.67;;
2644;SDS011;15377;48.540;9.268;2023-02-17T05:19:29;7.63;;;4.00;;
2644;SDS011;15377;48.540;9.268;2023-02-17T05:21:54;9.20;;;3.63;;
2644;SDS011;15377;48.540;9.268;2023-02-17T05:24:20;11.70;;;3.93;;
2644;SDS011;15377;48.540;9.268;2023-02-17T05:26:45;8.53;;;4.13;;
2644;SDS011;15377;48.540;9.268;2023-02-17T05:29:10;10.63;;;3.80;;
2644;SDS011;15377;48.540;9.268;2023-02-17T05:31:36;8.43;;;3.80;;
2644;SDS011;15377;48.540;9.268;2023-02-17T05:34:01;8.40;;;3.60;;
2644;SDS011;15377;48.540;9.268;2023-02-17T05:36:27;9.10;;;3.87;;
2644;SDS011;15377;48.540;9.268;2023-02-17T05:38:52;10.43;;;3.90;;
2644;SDS011;15377;48.540;9.268;2023-02-17T05:41:18;10.90;;;4.20;;
2644;SDS011;15377;48.540;9.268;2023-02-17T05:43:44;8.00;;;3.40;;
2644;SDS011;15377;48.540;9.268;2023-02-17T05:46:10;7.40;;;3.30;;
2644;SDS011;15377;48.540;9.268;2023-02-17T05:48:36;9.13;;;3.50;;
2644;SDS011;15377;48.540;9.268;2023-02-17T05:51:01;8.07;;;3.47;;
2644;SDS011;15377;48.540;9.268;2023-02-17T05:53:27;9.03;;;3.60;;
2644;SDS011;15377;48.540;9.268;2023-02-17T05:55:52;8.27;;;3.53;;
2644;SDS011;15377;48.540;9.268;2023-02-17T05:58:18;7.97;;;2.90;;
2644;SDS011;15377;48.540;9.268;2023-02-17T06:00:43;9.10;;;3.50;;
2644;SDS011;15377;48.540;9.268;2023-02-17T06:03:10;8.23;;;3.53;;
2644;SDS011;15377;48.540;9.268;2023-02-17T06:05:35;12.00;;;4.03;;
2644;SDS011;15377;48.540;9.268;2023-02-17T06:08:00;7.80;;;3.20;;
2644;SDS011;15377;48.540;9.268;2023-02-17T06:10:26;7.50;;;3.20;;
2644;SDS011;15377;48.540;9.268;2023-02-17T06:12:51;10.30;;;3.30;;
2644;SDS011;15377;48.540;9.268;2023-02-17T06:15:17;8.83;;;3.30;;
2644;SDS011;15377;48.540;9.268;2023-02-17T06:17:42;10.07;;;4.30;;
2644;SDS011;15377;48.540;9.268;2023-02-17T06:20:07;7.00;;;3.40;;
2644;SDS011;15377;48.540;9.268;2023-02-17T06:22:34;8.50;;;3.30;;
2644;SDS011;15377;48.540;9.268;2023-02-17T06:24:59;7.63;;;3.40;;
2644;SDS011;15377;48.540;9.268;2023-02-17T06:27:24;8.97;;;4.10;;
2644;SDS011;15377;48.540;9.268;2023-02-17T06:29:50;7.67;;;3.73;;
2644;SDS011;15377;48.540;9.268;2023-02-17T06:32:15;6.70;;;3.37;;
2644;SDS011;15377;48.540;9.268;2023-02-17T06:34:41;9.50;;;4.30;;
2644;SDS011;15377;48.540;9.268;2023-02-17T06:37:06;8.50;;;3.73;;
2644;SDS011;15377;48.540;9.268;2023-02-17T06:39:32;8.70;;;4.03;;
2644;SDS011;15377;48.540;9.268;2023-02-17T06:42:00;8.03;;;3.70;;
2644;SDS011;15377;48.540;9.268;2023-02-17T06:44:25;7.83;;;3.80;;
2644;SDS011;15377;48.540;9.268;2023-02-17T06:46:51;8.03;;;3.43;;
2644;SDS011;15377;48.540;9.268;2023-02-17T06:49:17;10.07;;;3.93;;
2644;SDS011;15377;48.540;9.268;2023-02-17T06:51:42;10.90;;;3.43;;
2644;SDS011;15377;48.540;9.268;2023-02-17T06:54:07;12.90;;;3.67;;
2644;SDS011;15377;48.540;9.268;2023-02-17T06:56:33;7.40;;;3.73;;
2644;SDS011;15377;48.540;9.268;2023-02-17T06:58:59;7.60;;;3.60;;
2644;SDS011;15377;48.540;9.268;2023-02-17T07:01:25;9.67;;;3.17;;
2644;SDS011;15377;48.540;9.268;2023-02-17T07:03:51;11.40;;;4.27;;
2644;SDS011;15377;48.540;9.268;2023-02-17T07:06:17;8.47;;;3.20;;
2644;SDS011;15377;48.540;9.268;2023-02-17T07:08:42;8.40;;;3.30;;
2644;SDS011;15377;48.540;9.268;2023-02-17T07:11:09;7.70;;;3.60;;
2644;SDS011;15377;48.540;9.268;2023-02-17T07:13:36;8.43;;;3.33;;
2644;SDS011;15377;48.540;9.268;2023-02-17T07:16:03;7.77;;;3.40;;
2644;SDS011;15377;48.540;9.268;2023-02-17T07:18:29;10.57;;;4.60;;
2644;SDS011;15377;48.540;9.268;2023-02-17T07:20:54;9.33;;;5.53;;
2644;SDS011;15377;48.540;9.268;2023-02-17T07:23:20;8.13;;;3.47;;
2644;SDS011;15377;48.540;9.268;2023-02-17T07:25:46;8.97;;;4.07;;
2644;SDS011;15377;48.540;9.268;2023-02-17T07:28:11;7.63;;;3.27;;
2644;SDS011;15377;48.540;9.268;2023-02-17T07:30:37;9.63;;;5.10;;
2644;SDS011;15377;48.540;9.268;2023-02-17T07:33:06;8.33;;;3.47;;
2644;SDS011;15377;48.540;9.268;2023-02-17T07:35:32;8.20;;;3.30;;
2644;SDS011;15377;48.540;9.268;2023-02-17T07:37:58;9.57;;;3.23;;
2644;SDS011;15377;48.540;9.268;2023-02-17T07:40:24;7.97;;;3.20;;
2644;SDS011;15377;48.540;9.268;2023-02-17T07:42:50;9.70;;;3.00;;
2644;SDS011;15377;48.540;9.268;2023-02-17T07:45:16;7.73;;;3.37;;
2644;SDS011;15377;48.540;9.268;2023-02-17T07:47:41;6.80;;;3.20;;
2644;SDS011;15377;48.540;9.268;2023-02-17T07:50:07;7.20;;;3.27;;
2644;SDS011;15377;48.540;9.268;2023-02-17T07:52:33;6.40;;;3.20;;
2644;SDS011;15377;48.540;9.268;2023-02-17T07:54:58;7.33;;;3.50;;
2644;SDS011;15377;48.540;9.268;2023-02-17T07:57:23;8.30;;;3.17;;
2644;SDS011;15377;48.540;9.268;2023-02-17T07:59:49;10.73;;;3.37;;
2644;SDS011;15377;48.540;9.268;2023-02-17T08:02:14;9.70;;;3.57;;
2644;SDS011;15377;48.540;9.268;2023-02-17T08:04:40;11.40;;;4.00;;
2644;SDS011;15377;48.540;9.268;2023-02-17T08:07:05;7.43;;;3.37;;
2644;SDS011;15377;48.540;9.268;2023-02-17T08:09:31;7.33;;;3.30;;
2644;SDS011;15377;48.540;9.268;2023-02-17T08:12:16;9.50;;;3.50;;
2644;SDS011;15377;48.540;9.268;2023-02-17T08:15:01;7.20;;;2.90;;
2644;SDS011;15377;48.540;9.268;2023-02-17T08:17:27;6.07;;;2.90;;
2644;SDS011;15377;48.540;9.268;2023-02-17T08:19:53;6.87;;;3.30;;
2644;SDS011;15377;48.540;9.268;2023-02-17T08:22:19;7.40;;;3.30;;
2644;SDS011;15377;48.540;9.268;2023-02-17T08:24:45;6.93;;;2.93;;
2644;SDS011;15377;48.540;9.268;2023-02-17T08:27:14;6.57;;;3.27;;
2644;SDS011;15377;48.540;9.268;2023-02-17T08:29:39;7.53;;;3.23;;
2644;SDS011;15377;48.540;9.268;2023-02-17T08:32:05;7.63;;;3.27;;
2644;SDS011;15377;48.540;9.268;2023-02-17T08:34:30;7.43;;;3.30;;
2644;SDS011;15377;48.540;9.268;2023-02-17T08:37:01;7.00;;;3.30;;
2644;SDS011;15377;48.540;9.268;2023-02-17T08:39:28;7.77;;;3.43;;
2644;SDS011;15377;48.540;9.268;2023-02-17T08:41:54;8.00;;;3.40;;
2644;SDS011;15377;48.540;9.268;2023-02-17T08:44:20;7.83;;;3.70;;
2644;SDS011;15377;48.540;9.268;2023-02-17T08:46:46;7.40;;;3.00;;
2644;SDS011;15377;48.540;9.268;2023-02-17T08:49:13;8.33;;;3.40;;
2644;SDS011;15377;48.540;9.268;2023-02-17T08:51:40;8.53;;;3.63;;
2644;SDS011;15377;48.540;9.268;2023-02-17T08:54:06;5.80;;;2.80;;
2644;SDS011;15377;48.540;9.268;2023-02-17T08:56:33;8.97;;;3.03;;
2644;SDS011;15377;48.540;9.268;2023-02-17T08:58:58;7.30;;;3.20;;
2644;SDS011;15377;48.540;9.268;2023-02-17T09:01:24;7.00;;;2.93;;
2644;SDS011;15377;48.540;9.268;2023-02-17T09:03:50;6.47;;;3.33;;
2644;SDS011;15377;48.540;9.268;2023-02-17T09:06:18;6.93;;;2.93;;
2644;SDS011;15377;48.540;9.268;2023-02-17T09:08:44;7.70;;;3.10;;
2644;SDS011;15377;48.540;9.268;2023-02-17T09:11:10;9.60;;;2.90;;
2644;SDS011;15377;48.540;9.268;2023-02-17T09:13:36;7.87;;;2.90;;
2644;SDS011;15377;48.540;9.268;2023-02-17T09:16:02;9.63;;;2.90;;
2644;SDS011;15377;48.540;9.268;2023-02-17T09:18:27;7.67;;;3.40;;
2644;SDS011;15377;48.540;9.268;2023-02-17T09:20:53;8.63;;;3.43;;
2644;SDS011;15377;48.540;9.268;2023-02-17T09:23:18;6.97;;;3.20;;
2644;SDS011;15377;48.540;9.268;2023-02-17T09:25:44;8.13;;;3.60;;
2644;SDS011;15377;48.540;9.268;2023-02-17T09:28:09;6.30;;;2.83;;
2644;SDS011;15377;48.540;9.268;2023-02-17T09:30:35;8.10;;;3.30;;
2644;SDS011;15377;48.540;9.268;2023-02-17T09:33:01;7.27;;;3.20;;
2644;SDS011;15377;48.540;9.268;2023-02-17T09:35:27;6.63;;;2.43;;
2644;SDS011;15377;48.540;9.268;2023-02-17T09:37:53;7.20;;;3.00;;
2644;SDS011;15377;48.540;9.268;2023-02-17T09:41:01;6.67;;;2.83;;
2644;SDS011;15377;48.540;9.268;2023-02-17T09:43:20;6.57;;;2.70;;
2644;SDS011;15377;48.540;9.268;2023-02-17T09:45:53;6.77;;;3.20;;
2644;SDS011;15377;48.540;9.268;2023-02-17T09:48:22;6.30;;;2.73;;
2644;SDS011;15377;48.540;9.268;2023-02-17T09:56:23;8.43;;;4.00;;
2644;SDS011;15377;48.540;9.268;2023-02-17T09:59:01;5.80;;;2.37;;
2644;SDS011;15377;48.540;9.268;2023-02-17T10:01:34;8.60;;;3.07;;
2644;SDS011;15377;48.540;9.268;2023-02-17T10:04:04;7.33;;;2.57;;
2644;SDS011;15377;48.540;9.268;2023-02-17T10:15:00;7.20;;;2.83;;
2644;SDS011;15377;48.540;9.268;2023-02-17T10:17:36;5.97;;;2.57;;
2644;SDS011;15377;48.540;9.268;2023-02-17T10:20:06;6.07;;;2.70;;
2644;SDS011;15377;48.540;9.268;2023-02-17T10:23:07;5.67;;;2.23;;
2644;SDS011;15377;48.540;9.268;2023-02-17T10:26:03;7.57;;;3.10;;
2644;SDS011;15377;48.540;9.268;2023-02-17T10:36:56;5.67;;;2.50;;
2644;SDS011;15377;48.540;9.268;2023-02-17T10:44:49;8.10;;;2.90;;
2644;SDS011;15377;48.540;9.268;2023-02-17T10:47:17;6.60;;;2.57;;
2644;SDS011;15377;48.540;9.268;2023-02-17T10:49:44;6.43;;;2.37;;
2644;SDS011;15377;48.540;9.268;2023-02-17T10:52:17;5.80;;;2.60;;
2644;SDS011;15377;48.540;9.268;2023-02-17T10:54:46;6.30;;;2.60;;
2644;SDS011;15377;48.540;9.268;2023-02-17T10:57:16;7.60;;;2.77;;
2644;SDS011;15377;48.540;9.268;2023-02-17T10:59:44;7.17;;;2.40;;
2644;SDS011;15377;48.540;9.268;2023-02-17T11:02:18;7.13;;;2.13;;
2644;SDS011;15377;48.540;9.268;2023-02-17T11:04:57;5.60;;;2.50;;
2644;SDS011;15377;48.540;9.268;2023-02-17T11:07:31;5.70;;;2.57;;
2644;SDS011;15377;48.540;9.268;2023-02-17T11:10:00;5.53;;;2.50;;
2644;SDS011;15377;48.540;9.268;2023-02-17T11:12:38;6.40;;;2.37;;
2644;SDS011;15377;48.540;9.268;2023-02-17T11:15:13;7.03;;;3.20;;
2644;SDS011;15377;48.540;9.268;2023-02-17T11:17:42;5.43;;;2.20;;
2644;SDS011;15377;48.540;9.268;2023-02-17T11:22:41;5.30;;;2.10;;
2644;SDS011;15377;48.540;9.268;2023-02-17T11:25:20;6.37;;;2.20;;
2644;SDS011;15377;48.540;9.268;2023-02-17T11:27:54;12.30;;;2.07;;
2644;SDS011;15377;48.540;9.268;2023-02-17T11:30:24;4.93;;;1.83;;
2644;SDS011;15377;48.540;9.268;2023-02-17T11:32:51;6.70;;;2.10;;
2644;SDS011;15377;48.540;9.268;2023-02-17T11:35:29;5.80;;;2.17;;
2644;SDS011;15377;48.540;9.268;2023-02-17T11:38:12;5.10;;;1.80;;
2644;SDS011;15377;48.540;9.268;2023-02-17T11:40:40;5.90;;;2.00;;
2644;SDS011;15377;48.540;9.268;2023-02-17T11:43:15;5.50;;;1.97;;
2644;SDS011;15377;48.540;9.268;2023-02-17T11:45:47;5.77;;;1.80;;
2644;SDS011;15377;48.540;9.268;2023-02-17T11:54:03;6.00;;;1.83;;
2644;SDS011;15377;48.540;9.268;2023-02-17T11:56:42;7.10;;;2.20;;
2644;SDS011;15377;48.540;9.268;2023-02-17T11:59:29;4.87;;;1.73;;
2644;SDS011;15377;48.540;9.268;2023-02-17T12:07:52;5.97;;;1.90;;
2644;SDS011;15377;48.540;9.268;2023-02-17T12:21:06;5.40;;;1.90;;
2644;SDS011;15377;48.540;9.268;2023-02-17T12:29:14;6.50;;;1.93;;
2644;SDS011;15377;48.540;9.268;2023-02-17T12:32:02;5.97;;;2.23;;
2644;SDS011;15377;48.540;9.268;2023-02-17T12:34:54;9.37;;;3.73;;
2644;SDS011;15377;48.540;9.268;2023-02-17T12:37:29;5.00;;;1.80;;
2644;SDS011;15377;48.540;9.268;2023-02-17T12:40:02;7.10;;;2.20;;
2644;SDS011;15377;48.540;9.268;2023-02-17T12:42:42;5.27;;;2.10;;
2644;SDS011;15377;48.540;9.268;2023-02-17T12:45:19;6.70;;;2.37;;
2644;SDS011;15377;48.540;9.268;2023-02-17T12:50:24;5.40;;;1.93;;
2644;SDS011;15377;48.540;9.268;2023-02-17T12:52:57;6.97;;;2.13;;
2644;SDS011;15377;48.540;9.268;2023-02-17T12:55:29;5.13;;;1.83;;
2644;SDS011;15377;48.540;9.268;2023-02-17T12:58:02;5.67;;;2.13;;
2644;SDS011;15377;48.540;9.268;2023-02-17T13:00:37;5.37;;;2.07;;
2644;SDS011;15377;48.540;9.268;2023-02-17T13:03:06;5.50;;;1.97;;
2644;SDS011;15377;48.540;9.268;2023-02-17T13:05:39;5.53;;;1.50;;
2644;SDS011;15377;48.540;9.268;2023-02-17T13:08:24;5.87;;;2.00;;
2644;SDS011;15377;48.540;9.268;2023-02-17T13:11:29;5.53;;;2.10;;
2644;SDS011;15377;48.540;9.268;2023-02-17T13:14:08;5.00;;;1.93;;
2644;SDS011;15377;48.540;9.268;2023-02-17T13:16:44;6.10;;;2.20;;
2644;SDS011;15377;48.540;9.268;2023-02-17T13:19:11;6.83;;;2.37;;
2644;SDS011;15377;48.540;9.268;2023-02-17T13:21:46;5.40;;;1.63;;
2644;SDS011;15377;48.540;9.268;2023-02-17T13:27:09;5.73;;;2.07;;
2644;SDS011;15377;48.540;9.268;2023-02-17T13:29:45;5.77;;;1.77;;
2644;SDS011;15377;48.540;9.268;2023-02-17T13:32:10;5.43;;;2.30;;
2644;SDS011;15377;48.540;9.268;2023-02-17T13:34:40;4.80;;;1.80;;
2644;SDS011;15377;48.540;9.268;2023-02-17T13:37:20;5.00;;;1.97;;
2644;SDS011;15377;48.540;9.268;2023-02-17T13:39:52;4.83;;;1.73;;
2644;SDS011;15377;48.540;9.268;2023-02-17T13:42:38;5.57;;;1.97;;
2644;SDS011;15377;48.540;9.268;2023-02-17T13:50:48;5.10;;;1.93;;
2644;SDS011;15377;48.540;9.268;2023-02-17T13:53:19;4.93;;;1.83;;
2644;SDS011;15377;48.540;9.268;2023-02-17T13:55:48;4.73;;;1.60;;
2644;SDS011;15377;48.540;9.268;2023-02-17T13:58:13;5.67;;;2.10;;
2644;SDS011;15377;48.540;9.268;2023-02-17T14:00:46;5.00;;;1.70;;
2644;SDS011;15377;48.540;9.268;2023-02-17T14:03:28;5.10;;;1.70;;
2644;SDS011;15377;48.540;9.268;2023-02-17T14:05:55;5.47;;;1.83;;
2644;SDS011;15377;48.540;9.268;2023-02-17T14:08:27;6.03;;;2.00;;
2644;SDS011;15377;48.540;9.268;2023-02-17T14:11:03;5.67;;;1.70;;
2644;SDS011;15377;48.540;9.268;2023-02-17T14:13:30;5.57;;;1.83;;
2644;SDS011;15377;48.540;9.268;2023-02-17T14:15:57;5.07;;;2.00;;
2644;SDS011;15377;48.540;9.268;2023-02-17T14:21:08;5.50;;;1.70;;
2644;SDS011;15377;48.540;9.268;2023-02-17T14:23:42;5.10;;;1.70;;
2644;SDS011;15377;48.540;9.268;2023-02-17T14:26:11;5.47;;;2.07;;
2644;SDS011;15377;48.540;9.268;2023-02-17T14:28:39;5.87;;;2.40;;
2644;SDS011;15377;48.540;9.268;2023-02-17T14:31:08;7.20;;;2.80;;
2644;SDS011;15377;48.540;9.268;2023-02-17T14:33:35;5.77;;;2.23;;
2644;SDS011;15377;48.540;9.268;2023-02-17T14:36:01;6.70;;;2.70;;
2644;SDS011;15377;48.540;9.268;2023-02-17T14:38:39;5.30;;;1.70;;
2644;SDS011;15377;48.540;9.268;2023-02-17T14:41:06;8.10;;;2.50;;
2644;SDS011;15377;48.540;9.268;2023-02-17T14:43:33;5.77;;;1.90;;
2644;SDS011;15377;48.540;9.268;2023-02-17T14:45:59;5.43;;;1.67;;
2644;SDS011;15377;48.540;9.268;2023-02-17T14:48:25;5.10;;;1.83;;
2644;SDS011;15377;48.540;9.268;2023-02-17T14:50:51;5.57;;;1.97;;
2644;SDS011;15377;48.540;9.268;2023-02-17T14:55:55;5.97;;;1.90;;
2644;SDS011;15377;48.540;9.268;2023-02-17T14:58:26;5.80;;;1.97;;
2644;SDS011;15377;48.540;9.268;2023-02-17T15:00:52;4.83;;;1.67;;
2644;SDS011;15377;48.540;9.268;2023-02-17T15:03:18;5.93;;;1.87;;
2644;SDS011;15377;48.540;9.268;2023-02-17T15:05:43;5.70;;;2.00;;
2644;SDS011;15377;48.540;9.268;2023-02-17T15:08:19;11.10;;;5.53;;
2644;SDS011;15377;48.540;9.268;2023-02-17T15:10:48;6.73;;;2.30;;
2644;SDS011;15377;48.540;9.268;2023-02-17T15:13:15;5.40;;;2.40;;
2644;SDS011;15377;48.540;9.268;2023-02-17T15:15:42;6.00;;;2.30;;
2644;SDS011;15377;48.540;9.268;2023-02-17T15:18:12;5.43;;;1.80;;
2644;SDS011;15377;48.540;9.268;2023-02-17T15:20:40;7.23;;;1.80;;
2644;SDS011;15377;48.540;9.268;2023-02-17T15:23:14;5.77;;;1.97;;
2644;SDS011;15377;48.540;9.268;2023-02-17T15:25:42;6.07;;;2.20;;
2644;SDS011;15377;48.540;9.268;2023-02-17T15:28:11;6.07;;;2.03;;
2644;SDS011;15377;48.540;9.268;2023-02-17T15:30:37;5.20;;;1.60;;
2644;SDS011;15377;48.540;9.268;2023-02-17T15:33:03;5.90;;;2.00;;
2644;SDS011;15377;48.540;9.268;2023-02-17T15:35:30;4.93;;;1.50;;
2644;SDS011;15377;48.540;9.268;2023-02-17T15:37:55;5.43;;;1.77;;
2644;SDS011;15377;48.540;9.268;2023-02-17T15:40:24;4.90;;;1.83;;
2644;SDS011;15377;48.540;9.268;2023-02-17T15:42:55;5.20;;;1.70;;
2644;SDS011;15377;48.540;9.268;2023-02-17T15:45:22;7.33;;;2.17;;
2644;SDS011;15377;48.540;9.268;2023-02-17T15:47:49;7.20;;;1.90;;
2644;SDS011;15377;48.540;9.268;2023-02-17T15:50:18;5.17;;;1.90;;
2644;SDS011;15377;48.540;9.268;2023-02-17T15:52:47;5.50;;;1.87;;
2644;SDS011;15377;48.540;9.268;2023-02-17T15:55:13;5.93;;;2.10;;
2644;SDS011;15377;48.540;9.268;2023-02-17T15:57:39;5.67;;;1.63;;
2644;SDS011;15377;48.540;9.268;2023-02-17T16:02:41;5.80;;;2.50;;
2644;SDS011;15377;48.540;9.268;2023-02-17T16:05:09;5.57;;;2.10;;
2644;SDS011;15377;48.540;9.268;2023-02-17T16:07:36;5.00;;;1.70;;
2644;SDS011;15377;48.540;9.268;2023-02-17T16:10:02;4.90;;;1.60;;
2644;SDS011;15377;48.540;9.268;2023-02-17T16:12:28;6.00;;;1.80;;
2644;SDS011;15377;48.540;9.268;2023-02-17T16:14:53;5.53;;;2.00;;
2644;SDS011;15377;48.540;9.268;2023-02-17T16:17:20;5.30;;;1.80;;
2644;SDS011;15377;48.540;9.268;2023-02-17T16:19:45;5.17;;;1.70;;
2644;SDS011;15377;48.540;9.268;2023-02-17T16:22:11;7.27;;;2.17;;
2644;SDS011;15377;48.540;9.268;2023-02-17T16:24:37;6.03;;;1.73;;
2644;SDS011;15377;48.540;9.268;2023-02-17T16:27:03;6.20;;;1.60;;
2644;SDS011;15377;48.540;9.268;2023-02-17T16:29:32;5.57;;;1.93;;
2644;SDS011;15377;48.540;9.268;2023-02-17T16:32:00;6.30;;;2.40;;
2644;SDS011;15377;48.540;9.268;2023-02-17T16:34:25;4.93;;;1.67;;
2644;SDS011;15377;48.540;9.268;2023-02-17T16:36:51;6.10;;;1.83;;
2644;SDS011;15377;48.540;9.268;2023-02-17T16:39:20;5.80;;;2.10;;
2644;SDS011;15377;48.540;9.268;2023-02-17T16:41:46;5.60;;;1.90;;
2644;SDS011;15377;48.540;9.268;2023-02-17T16:44:16;7.00;;;2.10;;
2644;SDS011;15377;48.540;9.268;2023-02-17T16:46:53;5.93;;;1.97;;
2644;SDS011;15377;48.540;9.268;2023-02-17T16:49:23;5.70;;;2.40;;
2644;SDS011;15377;48.540;9.268;2023-02-17T16:51:56;5.17;;;1.90;;
2644;SDS011;15377;48.540;9.268;2023-02-17T16:54:21;5.83;;;2.13;;
2644;SDS011;15377;48.540;9.268;2023-02-17T16:56:49;5.83;;;1.90;;